Pagrindinis puslapis
METAR-TAF:

METAR-TAF

Oro uostai :

Suleimanija, Irakas

platuma: 35-33-39N, ilguma: 45-18-52E, Aukštis: 760 m

Dabartinis oras

Ataskaita buvo paskelbta 57 minutes, ne 10:00 UTC
Vėjas 12 kt iš Rytų/Šiaurės Rytų
Temperatūra 13°C
Drėgmė 51%
Slėgis 1016 hPa
Matomumas 10 km arba daugiau
Mažai debesys ne aukštis 4000 ft
Išsisklaidę debesys ne aukštis 18000 ft

METAR: ORSU 261000Z 06012KT 9999 FEW040 SCT180 13/03 Q1016

Laikas: 13:57 (10:57 UTC)

Prognozė

Ataskaita buvo paskelbta 5 valandos ir 57 minutes, ne 05:00 UTC
Prognozė galioja nuo 26 metu 06 UTC su 27 metu 06 UTC
Vėjas 12 kt iš Šiaurės Rytų
Matomumas: 8000 m
Išsisklaidę debesys ne aukštis 4500 ft
Su prošvaistėmis ne aukštis 8000 ft
Tapsmas
nuo 26 metu 13 UTC su 26 metu 15 UTC
Vėjas 6 kt iš Pietryčių
Matomumas 10 km arba daugiau
nėra debesų žemiau 1500 m ir nėra kamuolinių lietaus debesų

TAF: ORSU 260500Z 2606/2706 04012KT 8000 SCT045 BKN080 BECMG 2613/2615 14006KT CAVOK

Orai ataskaitas ir orų prognozės (METAR, TAF).

turimą stotys yra geltonos ir raudonos taškus žemėlapyje.

Perkelti pele per norėdami pamatyti stoties vardą.

Tada spustelėkite, norėdami matyti oro stebėjimo ir prognozės.

Norėdami pakeisti žemėlapį: spustelėkite ant žalios mygtukų su juodo kryžiaus žemyn,; žalią mygtuką su brūkšneliu, jei norite nutolinti; arba žalių rodyklių gretimoms žemėlapius.


METAR-TAF: